Time;durP1;ratioP1;P1;durP2;ratioP2;P2;SDS_P1;SDS_P2;PMS_P1;PMS_P2;Temp;Humidity;BMP_temperature;BMP_pressure;BME280_temperature;BME280_humidity;BME280_pressure;Samples;Min_cycle;Max_cycle;Signal;HPM_P1;HPM_P2
2023/02/23 00:02:20;;;;;;;9.50;4.90;;;;;;;4.64;58.65;101562.08;107454;1254;109713;-60
2023/02/23 00:04:48;;;;;;;11.60;4.20;;;;;;;4.61;58.70;101566.30;107566;1254;108828;-60
2023/02/23 00:07:19;;;;;;;9.30;4.90;;;;;;;4.60;58.62;101571.70;107597;1252;97838;-61
2023/02/23 00:09:47;;;;;;;9.10;4.50;;;;;;;4.59;58.70;101570.12;107608;1254;97803;-59
2023/02/23 00:12:16;;;;;;;12.00;5.10;;;;;;;4.59;58.48;101569.41;107558;1254;111814;-61
2023/02/23 00:14:44;;;;;;;9.50;5.00;;;;;;;4.58;58.66;101571.80;107603;1254;109938;-60
2023/02/23 00:17:16;;;;;;;8.40;4.20;;;;;;;4.54;58.56;101576.04;107473;1254;107749;-61
2023/02/23 00:19:47;;;;;;;21.00;5.80;;;;;;;4.54;58.71;101575.52;107557;1254;97854;-60
2023/02/23 00:22:17;;;;;;;17.40;5.30;;;;;;;4.54;58.53;101579.06;107637;1254;98440;-60
2023/02/23 00:24:46;;;;;;;15.40;5.30;;;;;;;4.56;58.57;101578.82;107619;1254;111161;-61
2023/02/23 00:27:19;;;;;;;9.30;4.90;;;;;;;4.57;58.44;101582.67;107607;1253;111091;-61
2023/02/23 00:29:49;;;;;;;10.10;4.70;;;;;;;4.58;58.35;101585.09;107617;1256;107103;-61
2023/02/23 00:32:18;;;;;;;8.90;4.50;;;;;;;4.58;58.29;101588.14;107402;1254;97927;-60
2023/02/23 00:34:50;;;;;;;9.80;4.70;;;;;;;4.58;58.39;101586.53;107575;1254;97882;-60
2023/02/23 00:37:21;;;;;;;13.60;5.70;;;;;;;4.58;58.46;101592.20;107500;1254;111337;-60
2023/02/23 00:39:51;;;;;;;9.10;4.90;;;;;;;4.56;58.32;101589.10;107658;1253;110238;-60
2023/02/23 00:42:20;;;;;;;8.20;4.80;;;;;;;4.56;58.47;101591.44;107393;1254;107963;-59
2023/02/23 00:44:49;;;;;;;9.20;4.20;;;;;;;4.57;58.54;101592.25;107598;1253;97806;-61
2023/02/23 00:47:18;;;;;;;9.50;5.30;;;;;;;4.59;58.45;101592.88;107604;1253;97751;-59
2023/02/23 00:49:49;;;;;;;11.80;5.30;;;;;;;4.60;58.39;101593.17;107579;1254;111196;-60
2023/02/23 00:52:19;;;;;;;9.30;5.70;;;;;;;4.60;58.46;101591.59;107633;1254;109573;-60
2023/02/23 00:54:47;;;;;;;7.90;5.20;;;;;;;4.59;58.61;101589.66;107579;1254;108609;-60
2023/02/23 00:57:16;;;;;;;7.70;4.30;;;;;;;4.57;58.66;101591.19;107574;1253;97828;-59
2023/02/23 00:59:44;;;;;;;8.10;4.30;;;;;;;4.56;58.62;101594.08;107516;1254;97914;-62
2023/02/23 01:02:14;;;;;;;12.70;4.90;;;;;;;4.55;58.41;101594.83;107664;1254;112080;-61
2023/02/23 01:04:42;;;;;;;9.50;4.20;;;;;;;4.54;58.54;101593.09;107520;1254;109026;-60
2023/02/23 01:07:12;;;;;;;7.50;4.70;;;;;;;4.55;58.62;101594.84;107632;1254;108562;-59
2023/02/23 01:09:40;;;;;;;8.10;4.70;;;;;;;4.54;58.63;101593.82;107569;1253;97825;-61
2023/02/23 01:12:11;;;;;;;10.90;5.00;;;;;;;4.53;58.61;101595.65;107613;1253;97828;-60
2023/02/23 01:14:41;;;;;;;12.10;5.30;;;;;;;4.52;58.69;101596.59;107628;1256;111765;-60
2023/02/23 01:17:10;;;;;;;8.60;4.40;;;;;;;4.51;58.54;101594.69;107583;1254;109986;-61
2023/02/23 01:19:39;;;;;;;8.60;4.40;;;;;;;4.49;58.61;101596.39;107427;1254;107233;-60
2023/02/23 01:22:07;;;;;;;13.20;4.80;;;;;;;4.47;58.75;101598.42;107605;1254;98463;-60
2023/02/23 01:24:37;;;;;;;8.10;5.20;;;;;;;4.47;58.57;101598.27;107613;1256;97823;-61
2023/02/23 01:27:05;;;;;;;15.90;5.10;;;;;;;4.47;58.81;101594.53;107485;1254;111146;-60
2023/02/23 01:29:34;;;;;;;7.30;4.50;;;;;;;4.47;58.85;101598.77;107686;1254;109645;-61
2023/02/23 01:32:04;;;;;;;8.50;4.70;;;;;;;4.45;58.89;101597.46;107449;1252;106678;-61
2023/02/23 01:34:32;;;;;;;14.20;5.30;;;;;;;4.44;58.77;101598.96;107620;1253;97909;-59
2023/02/23 01:37:02;;;;;;;11.80;5.20;;;;;;;4.41;59.08;101596.79;107661;1253;98437;-61
2023/02/23 01:39:31;;;;;;;13.00;5.80;;;;;;;4.36;59.00;101594.88;107390;1253;111337;-60
2023/02/23 01:42:00;;;;;;;12.50;6.50;;;;;;;4.32;58.95;101594.58;107589;1256;109607;-60
2023/02/23 01:44:29;;;;;;;15.30;6.20;;;;;;;4.33;59.35;101595.94;107556;1254;108359;-60
2023/02/23 01:46:58;;;;;;;10.80;5.70;;;;;;;4.34;59.46;101597.45;107596;1254;97838;-60
2023/02/23 01:49:29;;;;;;;10.90;5.30;;;;;;;4.39;60.05;101595.27;107639;1254;97711;-61
2023/02/23 01:52:03;;;;;;;10.60;5.80;;;;;;;4.41;59.76;101595.73;107515;1254;111579;-59
2023/02/23 01:54:50;;;;;;;;;;;;;;;4.44;59.82;101595.76;107495;1254;110025;-61
2023/02/23 01:57:23;;;;;;;10.40;5.10;;;;;;;4.44;59.80;101594.86;107615;1254;108773;-62
2023/02/23 01:59:54;;;;;;;;;;;;;;;4.43;59.91;101594.23;107500;1254;97793;-61
2023/02/23 02:02:32;;;;;;;11.80;6.10;;;;;;;4.46;60.09;101595.48;107626;1254;98550;-61
2023/02/23 02:05:05;;;;;;;10.80;4.70;;;;;;;4.51;60.06;101597.02;107458;1254;112291;-61
2023/02/23 02:07:38;;;;;;;15.50;5.80;;;;;;;4.55;60.25;101596.44;107610;1254;110178;-61
2023/02/23 02:12:43;;;;;;;12.00;5.90;;;;;;;4.61;59.81;101598.96;107592;1253;97804;-59
2023/02/23 02:15:18;;;;;;;9.00;4.70;;;;;;;4.57;59.86;101600.95;107585;1254;97787;-60
2023/02/23 02:17:56;;;;;;;10.50;5.80;;;;;;;4.50;59.77;101602.55;107610;1253;110542;-59
2023/02/23 02:21:04;;;;;;;14.70;5.50;;;;;;;4.43;59.66;101601.29;107486;1259;109679;-59
2023/02/23 02:24:13;;;;;;;10.40;5.40;;;;;;;4.35;59.62;101606.31;107424;1252;109353;-60
2023/02/23 02:26:55;;;;;;;8.30;5.10;;;;;;;4.28;59.73;101608.45;107577;1254;97842;-61
2023/02/23 02:29:45;;;;;;;11.70;5.30;;;;;;;4.23;59.52;101613.61;107626;1252;97732;-62
2023/02/23 02:32:25;;;;;;;14.80;6.10;;;;;;;4.19;59.61;101618.47;107620;1253;112646;-60
2023/02/23 02:35:27;;;;;;;13.50;6.20;;;;;;;4.11;59.76;101622.73;107591;1254;108864;-60
2023/02/23 02:38:00;;;;;;;13.30;6.10;;;;;;;4.07;59.77;101628.40;107595;1254;107351;-60
2023/02/23 02:40:52;;;;;;;18.70;6.40;;;;;;;4.04;60.18;101630.36;107450;1254;97724;-62
2023/02/23 02:43:34;;;;;;;13.80;5.40;;;;;;;4.00;60.18;101636.73;107559;1253;97899;-60
2023/02/23 02:46:13;;;;;;;10.70;5.60;;;;;;;3.97;60.37;101638.30;107459;1254;111848;-60
2023/02/23 02:49:11;;;;;;;11.60;5.40;;;;;;;3.96;60.19;101642.08;107597;1256;109984;-61
2023/02/23 02:51:57;;;;;;;10.40;5.40;;;;;;;3.95;60.37;101641.77;107527;1256;108755;-62
2023/02/23 02:55:03;;;;;;;13.50;5.40;;;;;;;3.96;60.32;101644.90;107562;1253;98457;-60
2023/02/23 02:57:32;;;;;;;7.90;4.90;;;;;;;3.94;60.51;101652.14;107537;1252;97835;-60
2023/02/23 04:17:45;;;;;;;16.60;9.60;;;;;;;3.61;61.32;101732.71;107597;1253;109692;-60
2023/02/23 04:20:15;;;;;;;10.50;6.20;;;;;;;3.61;61.31;101737.52;107625;1253;107691;-60
2023/02/23 04:22:43;;;;;;;12.40;5.90;;;;;;;3.56;61.33;101738.80;107537;1254;97824;-61
2023/02/23 04:25:14;;;;;;;8.20;5.00;;;;;;;3.49;61.24;101736.80;107587;1256;98467;-60
2023/02/23 04:27:44;;;;;;;10.70;5.30;;;;;;;3.47;61.51;101739.73;107604;1254;110917;-60
2023/02/23 04:30:12;;;;;;;9.30;5.30;;;;;;;3.45;61.22;101743.86;107583;1254;109639;-62
2023/02/23 04:32:43;;;;;;;11.80;5.80;;;;;;;3.47;61.54;101745.02;107625;1253;108057;-61
2023/02/23 04:35:12;;;;;;;18.20;8.00;;;;;;;3.51;61.23;101744.85;107586;1254;97820;-60
2023/02/23 04:37:41;;;;;;;16.80;7.40;;;;;;;3.57;61.38;101752.06;107607;1254;97953;-60
2023/02/23 04:40:10;;;;;;;22.80;10.80;;;;;;;3.61;61.88;101753.11;107585;1254;110476;-61
2023/02/23 04:42:40;;;;;;;23.00;9.20;;;;;;;3.65;61.61;101754.02;107573;1253;110165;-60
2023/02/23 04:45:09;;;;;;;15.30;7.50;;;;;;;3.70;61.95;101752.75;107599;1254;107614;-59
2023/02/23 04:47:38;;;;;;;11.60;5.60;;;;;;;3.73;62.02;101753.80;107602;1252;97842;-60
2023/02/23 04:50:08;;;;;;;16.40;5.50;;;;;;;3.77;61.89;101758.43;107568;1253;98375;-62
2023/02/23 04:52:37;;;;;;;11.20;4.80;;;;;;;3.82;61.88;101758.09;107595;1253;112268;-60
2023/02/23 04:55:08;;;;;;;10.90;5.00;;;;;;;3.86;62.11;101757.88;107618;1254;109692;-60
2023/02/23 04:57:36;;;;;;;9.10;5.40;;;;;;;3.87;61.66;101761.02;107587;1254;107727;-61
2023/02/23 05:00:06;;;;;;;8.30;4.70;;;;;;;3.84;61.59;101767.91;107579;1254;97842;-61
2023/02/23 05:02:34;;;;;;;13.80;5.00;;;;;;;3.86;61.52;101773.48;107641;1253;97931;-60
2023/02/23 05:05:03;;;;;;;12.00;4.80;;;;;;;3.93;61.92;101776.58;107545;1254;111822;-61
2023/02/23 05:07:31;;;;;;;13.10;5.10;;;;;;;3.98;61.67;101780.43;107483;1254;110037;-60
2023/02/23 05:10:00;;;;;;;10.70;5.00;;;;;;;4.02;61.59;101780.27;107516;1253;108639;-60
2023/02/23 05:12:29;;;;;;;9.50;4.70;;;;;;;4.03;61.36;101782.67;107622;1254;97941;-61
2023/02/23 05:14:58;;;;;;;11.30;4.40;;;;;;;4.04;61.09;101789.01;107574;1254;98670;-60
2023/02/23 05:17:27;;;;;;;15.50;5.60;;;;;;;4.05;61.08;101787.36;107617;1254;110947;-60
2023/02/23 05:19:55;;;;;;;22.30;8.10;;;;;;;4.07;60.86;101791.90;107626;1254;110033;-59
2023/02/23 05:22:23;;;;;;;15.70;7.90;;;;;;;4.02;60.63;101793.56;107581;1254;109233;-60
2023/02/23 05:24:52;;;;;;;15.50;8.00;;;;;;;3.98;60.43;101794.27;107569;1254;97828;-60
2023/02/23 05:27:24;;;;;;;20.70;7.70;;;;;;;3.95;60.33;101797.09;107618;1253;97807;-61
2023/02/23 05:29:52;;;;;;;14.40;7.20;;;;;;;3.85;60.30;101797.35;107661;1254;111223;-61
2023/02/23 05:32:20;;;;;;;15.10;6.30;;;;;;;3.77;60.13;101804.42;107650;1252;109685;-62
2023/02/23 05:34:49;;;;;;;10.70;5.60;;;;;;;3.76;60.33;101808.19;107482;1254;107697;-60
2023/02/23 05:37:18;;;;;;;13.60;5.20;;;;;;;3.81;60.77;101816.31;107465;1253;97950;-60
2023/02/23 05:39:47;;;;;;;10.50;3.90;;;;;;;3.84;60.56;101822.05;107592;1253;97818;-60
2023/02/23 05:42:15;;;;;;;20.40;5.50;;;;;;;3.86;60.56;101826.20;107591;1253;112331;-60
2023/02/23 05:44:44;;;;;;;14.10;5.90;;;;;;;3.87;60.48;101831.12;107613;1254;110176;-60
2023/02/23 05:47:13;;;;;;;12.70;5.30;;;;;;;3.89;60.35;101834.59;107555;1256;108502;-60
2023/02/23 05:49:41;;;;;;;17.10;6.50;;;;;;;3.89;60.30;101835.67;107499;1257;97863;-60
2023/02/23 05:52:10;;;;;;;18.40;6.30;;;;;;;3.89;60.20;101839.55;107464;1254;97821;-60
2023/02/23 05:54:38;;;;;;;16.90;5.60;;;;;;;3.89;60.14;101832.97;107601;1255;111791;-62
2023/02/23 05:57:07;;;;;;;15.90;5.90;;;;;;;3.86;60.04;101838.09;107625;1253;109953;-60
2023/02/23 05:59:35;;;;;;;19.50;5.30;;;;;;;3.80;59.86;101838.71;107578;1253;108191;-59
2023/02/23 06:02:04;;;;;;;8.90;4.80;;;;;;;3.71;59.92;101841.73;107567;1253;97809;-60
2023/02/23 06:04:33;;;;;;;7.50;4.50;;;;;;;3.67;59.84;101846.36;107618;1253;98442;-60
2023/02/23 06:07:02;;;;;;;19.30;7.20;;;;;;;3.65;59.89;101851.04;107569;1253;111536;-61
2023/02/23 06:09:30;;;;;;;21.40;8.60;;;;;;;3.67;59.91;101855.95;107601;1254;109338;-60
2023/02/23 06:11:59;;;;;;;22.40;8.30;;;;;;;3.63;59.68;101859.29;107549;1256;108208;-60
2023/02/23 06:14:28;;;;;;;22.00;9.10;;;;;;;3.61;59.76;101862.22;107542;1254;97722;-60
2023/02/23 06:16:56;;;;;;;20.30;8.40;;;;;;;3.64;59.76;101870.44;107605;1253;97724;-62
2023/02/23 06:19:25;;;;;;;23.30;7.90;;;;;;;3.63;59.72;101871.72;107647;1252;112086;-60
2023/02/23 06:21:53;;;;;;;15.70;7.20;;;;;;;3.63;59.83;101875.09;107448;1253;109211;-58
2023/02/23 06:24:23;;;;;;;25.10;6.90;;;;;;;3.65;59.51;101881.04;107616;1253;107887;-61
2023/02/23 06:26:51;;;;;;;25.00;5.90;;;;;;;3.66;59.81;101885.27;107612;1252;97825;-60
2023/02/23 06:29:19;;;;;;;10.00;5.00;;;;;;;3.65;59.67;101887.44;107587;1253;97698;-60
2023/02/23 06:31:47;;;;;;;16.30;6.20;;;;;;;3.66;59.68;101892.35;107582;1253;111920;-60
2023/02/23 06:34:17;;;;;;;14.10;6.00;;;;;;;3.67;59.63;101888.41;107617;1253;109641;-62
2023/02/23 06:36:46;;;;;;;15.90;5.90;;;;;;;3.69;59.48;101887.59;107459;1254;108301;-59
2023/02/23 06:39:15;;;;;;;18.50;6.70;;;;;;;3.71;59.61;101885.36;107601;1254;97700;-66
2023/02/23 06:41:46;;;;;;;23.50;6.90;;;;;;;3.72;59.72;101885.54;107479;1253;98356;-59
2023/02/23 06:44:14;;;;;;;19.00;7.60;;;;;;;3.72;59.51;101885.88;107563;1252;111321;-61
2023/02/23 06:46:43;;;;;;;29.20;7.50;;;;;;;3.71;59.37;101886.27;107556;1254;109401;-59
2023/02/23 06:49:12;;;;;;;13.50;6.30;;;;;;;3.68;59.14;101890.67;107561;1253;108228;-60
2023/02/23 06:51:43;;;;;;;15.50;6.50;;;;;;;3.63;59.13;101892.98;107523;1254;97773;-62
2023/02/23 06:54:12;;;;;;;11.50;5.90;;;;;;;3.63;58.94;101891.95;107573;1253;97698;-60
2023/02/23 06:56:40;;;;;;;12.60;5.50;;;;;;;3.60;58.87;101896.48;107658;1253;110387;-60
2023/02/23 06:59:08;;;;;;;12.90;5.80;;;;;;;3.63;58.90;101896.75;107647;1254;109655;-59
2023/02/23 07:01:37;;;;;;;10.50;5.80;;;;;;;3.63;58.74;101899.77;107586;1253;108589;-61
2023/02/23 07:04:05;;;;;;;14.40;6.40;;;;;;;3.63;58.90;101907.38;107636;1253;97823;-60
2023/02/23 07:06:34;;;;;;;16.10;6.40;;;;;;;3.67;59.01;101908.80;107609;1254;97806;-64
2023/02/23 07:09:05;;;;;;;13.90;7.10;;;;;;;3.69;58.79;101905.35;107580;1253;110689;-61
2023/02/23 07:11:34;;;;;;;13.90;6.80;;;;;;;3.67;58.79;101904.71;107447;1254;108695;-60
2023/02/23 07:14:02;;;;;;;17.20;6.60;;;;;;;3.66;58.84;101899.61;107515;1254;108480;-61
2023/02/23 07:16:30;;;;;;;15.80;7.30;;;;;;;3.67;58.93;101900.84;107583;1253;97814;-60
2023/02/23 07:18:59;;;;;;;13.80;6.80;;;;;;;3.68;58.74;101904.33;107551;1254;97850;-60
2023/02/23 07:21:27;;;;;;;13.60;7.30;;;;;;;3.72;58.73;101905.76;107571;1253;111743;-60
2023/02/23 07:23:57;;;;;;;19.60;7.40;;;;;;;3.84;58.76;101904.56;107589;1254;109147;-61
2023/02/23 07:26:26;;;;;;;17.60;7.40;;;;;;;3.94;58.38;101900.76;107582;1256;108664;-60
2023/02/23 07:28:54;;;;;;;13.90;7.50;;;;;;;4.02;58.39;101900.96;107621;1252;97921;-60
2023/02/23 07:31:22;;;;;;;13.40;6.60;;;;;;;4.12;57.77;101904.95;107639;1252;97693;-60
2023/02/23 07:33:55;;;;;;;13.30;6.60;;;;;;;4.14;57.35;101905.40;107546;1253;111739;-62
2023/02/23 07:36:23;;;;;;;11.30;6.40;;;;;;;4.12;57.02;101907.31;107584;1254;109935;-59
2023/02/23 07:38:53;;;;;;;14.40;7.00;;;;;;;4.10;56.48;101908.80;107580;1252;108311;-60
2023/02/23 07:41:22;;;;;;;13.10;7.20;;;;;;;4.04;56.45;101910.45;107596;1254;97819;-61
2023/02/23 07:43:50;;;;;;;20.40;6.90;;;;;;;4.03;56.31;101909.59;107638;1254;97921;-60
2023/02/23 07:46:19;;;;;;;12.30;6.90;;;;;;;4.13;56.47;101912.73;107559;1253;112223;-62
2023/02/23 07:48:48;;;;;;;20.00;7.90;;;;;;;4.22;56.09;101917.13;107580;1256;108888;-60
2023/02/23 07:51:16;;;;;;;19.70;7.40;;;;;;;4.32;56.12;101919.35;107580;1254;107690;-62
2023/02/23 07:53:45;;;;;;;30.20;7.70;;;;;;;4.45;56.02;101920.75;107618;1252;97824;-60
2023/02/23 07:56:14;;;;;;;26.70;8.40;;;;;;;4.57;55.67;101920.59;107528;1254;97828;-61
2023/02/23 07:58:43;;;;;;;23.50;6.70;;;;;;;4.60;54.22;101928.11;107577;1254;111113;-61
2023/02/23 08:01:13;;;;;;;17.70;7.20;;;;;;;4.55;53.70;101926.35;107490;1254;109651;-61
2023/02/23 08:03:48;;;;;;;18.30;7.50;;;;;;;4.44;53.66;101931.83;107554;1252;108027;-61
2023/02/23 08:06:18;;;;;;;18.50;6.80;;;;;;;4.46;54.02;101937.40;107459;1256;97889;-61
2023/02/23 08:08:46;;;;;;;18.20;7.00;;;;;;;4.50;53.86;101939.56;107498;1254;97682;-62
2023/02/23 08:11:15;;;;;;;14.80;6.50;;;;;;;4.60;54.09;101936.64;107557;1253;111686;-60
2023/02/23 08:13:44;;;;;;;17.90;6.80;;;;;;;4.66;53.17;101939.03;107531;1254;108212;-61
2023/02/23 08:16:17;;;;;;;21.50;6.40;;;;;;;4.63;53.63;101942.70;107545;1254;107801;-61
2023/02/23 08:18:46;;;;;;;17.50;6.30;;;;;;;4.65;53.56;101939.95;107556;1254;97842;-63
2023/02/23 08:21:30;;;;;;;38.50;7.10;;;;;;;4.74;53.65;101941.13;107546;1253;99625;-64
2023/02/23 08:24:07;;;;;;;20.40;6.60;;;;;;;4.74;52.88;101936.88;107371;1254;112758;-61
2023/02/23 08:26:37;;;;;;;27.30;7.20;;;;;;;4.69;52.72;101945.83;107586;1254;109040;-60
2023/02/23 08:29:08;;;;;;;22.60;7.10;;;;;;;4.65;52.96;101949.36;107384;1259;109544;-65
2023/02/23 08:31:36;;;;;;;10.70;5.90;;;;;;;4.65;53.17;101950.60;107551;1254;97906;-62
2023/02/23 08:34:05;;;;;;;14.50;6.00;;;;;;;4.77;53.28;101946.88;107573;1254;97813;-61
2023/02/23 08:36:33;;;;;;;18.30;6.50;;;;;;;4.91;53.03;101947.33;107451;1254;112841;-61
2023/02/23 08:39:06;;;;;;;13.10;7.30;;;;;;;4.97;52.64;101947.91;107602;1254;109156;-61
2023/02/23 08:41:35;;;;;;;11.50;6.40;;;;;;;5.02;52.21;101958.04;107475;1257;108235;-63
2023/02/23 08:44:16;;;;;;;14.20;6.30;;;;;;;5.04;51.96;101963.60;107563;1254;97828;-61
2023/02/23 08:46:44;;;;;;;16.30;6.50;;;;;;;5.08;52.21;101960.05;107622;1256;97825;-60
2023/02/23 08:49:13;;;;;;;16.40;6.60;;;;;;;5.11;51.67;101959.00;107631;1254;111270;-61
2023/02/23 08:51:50;;;;;;;23.20;7.00;;;;;;;5.12;51.09;101967.33;107612;1253;110548;-64
2023/02/23 08:54:25;;;;;;;12.30;5.40;;;;;;;5.16;51.27;101957.21;107490;1258;108415;-64
2023/02/23 08:57:04;;;;;;;11.60;5.50;;;;;;;5.33;50.86;101963.31;107582;1256;98247;-61
2023/02/23 08:59:33;;;;;;;7.70;5.20;;;;;;;5.38;50.29;101964.34;107619;1253;97825;-62
2023/02/23 09:02:02;;;;;;;12.00;4.90;;;;;;;5.38;49.92;101971.98;107576;1256;113049;-61
2023/02/23 09:04:33;;;;;;;14.60;5.80;;;;;;;5.38;49.95;101972.92;107626;1254;109907;-61
2023/02/23 09:07:03;;;;;;;14.90;5.60;;;;;;;5.45;49.83;101980.21;107577;1254;108754;-61
2023/02/23 09:09:33;;;;;;;24.00;6.20;;;;;;;5.52;49.92;101979.48;107610;1254;97807;-62
2023/02/23 09:12:04;;;;;;;25.80;7.00;;;;;;;5.63;49.86;101975.08;107611;1254;98559;-61
2023/02/23 09:14:35;;;;;;;15.80;6.70;;;;;;;5.66;49.14;101974.57;107469;1253;111796;-60
2023/02/23 09:17:08;;;;;;;14.70;6.30;;;;;;;5.64;48.98;101975.77;107529;1254;108415;-64
2023/02/23 09:19:58;;;;;;;13.80;5.30;;;;;;;5.66;49.27;101977.78;107423;1257;107118;-59
2023/02/23 09:22:30;;;;;;;23.30;5.90;;;;;;;5.81;49.23;101976.89;107450;1253;97855;-62
2023/02/23 09:24:59;;;;;;;22.40;4.80;;;;;;;5.98;48.62;101980.66;107599;1254;97925;-61
2023/02/23 09:27:27;;;;;;;14.90;5.50;;;;;;;6.10;47.60;101977.27;107596;1254;111338;-60
2023/02/23 09:29:56;;;;;;;33.10;6.70;;;;;;;6.13;47.74;101978.54;107618;1254;109367;-63
2023/02/23 09:32:24;;;;;;;12.90;5.00;;;;;;;6.12;47.73;101980.54;107577;1256;107866;-61
2023/02/23 09:34:52;;;;;;;20.10;6.10;;;;;;;6.07;48.29;101979.91;107593;1253;97822;-60
2023/02/23 09:37:20;;;;;;;18.10;5.40;;;;;;;6.11;48.00;101983.09;107584;1254;97721;-61
2023/02/23 09:39:49;;;;;;;13.00;5.80;;;;;;;6.06;48.18;101989.23;107575;1253;112092;-61
2023/02/23 09:42:34;;;;;;;8.60;5.50;;;;;;;6.08;48.19;101989.84;107533;1254;109120;-60
2023/02/23 09:45:29;;;;;;;12.30;6.60;;;;;;;6.02;48.30;101989.26;107591;1254;108508;-61
2023/02/23 09:48:03;;;;;;;12.10;6.00;;;;;;;6.01;48.42;101988.23;107280;1254;97838;-61
2023/02/23 09:50:36;;;;;;;8.10;5.20;;;;;;;6.05;48.46;101987.27;107565;1254;97883;-60
2023/02/23 09:53:28;;;;;;;9.00;5.10;;;;;;;6.08;47.34;101993.20;106889;1256;973996;-61
2023/02/23 09:55:57;;;;;;;18.20;5.70;;;;;;;6.05;47.64;101991.04;107571;1254;108705;-60
2023/02/23 09:58:32;;;;;;;12.70;6.20;;;;;;;6.06;47.35;101990.12;107549;1254;107432;-61
2023/02/23 10:01:27;;;;;;;18.40;8.20;;;;;;;6.04;47.43;101987.92;107589;1256;97825;-60
2023/02/23 10:04:25;;;;;;;16.10;7.00;;;;;;;6.03;48.01;101989.36;107576;1254;99720;-61
2023/02/23 10:07:25;;;;;;;18.10;6.30;;;;;;;6.03;48.10;101988.82;107511;1253;111892;-61
2023/02/23 10:10:23;;;;;;;24.40;7.00;;;;;;;6.04;47.81;101987.00;107577;1254;109640;-60
2023/02/23 10:13:00;;;;;;;16.90;7.00;;;;;;;5.92;47.59;101985.08;107620;1254;107574;-60
2023/02/23 10:15:44;;;;;;;21.50;6.40;;;;;;;5.85;47.74;101984.89;107588;1254;97832;-61
2023/02/23 10:18:35;;;;;;;12.70;6.70;;;;;;;5.81;47.77;101985.97;107605;1254;97819;-63
2023/02/23 10:21:30;;;;;;;10.10;5.80;;;;;;;5.82;47.80;101983.05;107489;1254;111234;-61
2023/02/23 10:24:04;;;;;;;12.80;5.70;;;;;;;5.88;47.97;101976.34;107614;1254;109588;-61
2023/02/23 10:26:49;;;;;;;14.30;5.90;;;;;;;5.91;47.52;101979.05;107569;1254;108774;-61
2023/02/23 10:29:40;;;;;;;11.10;5.90;;;;;;;5.92;47.78;101974.05;107589;1256;97697;-60
2023/02/23 10:32:37;;;;;;;14.70;5.30;;;;;;;5.93;47.87;101972.73;107532;1253;98446;-60
2023/02/23 10:35:15;;;;;;;24.20;5.50;;;;;;;6.02;47.70;101977.66;107603;1254;112163;-61
2023/02/23 10:37:45;;;;;;;16.40;5.20;;;;;;;6.08;47.40;101974.50;107609;1256;109869;-60
2023/02/23 10:40:17;;;;;;;10.10;5.80;;;;;;;6.14;47.13;101971.18;107566;1254;108705;-60
2023/02/23 10:42:46;;;;;;;24.90;5.60;;;;;;;6.14;47.20;101970.83;107372;1254;97860;-61
2023/02/23 10:45:21;;;;;;;10.20;5.80;;;;;;;6.11;47.26;101970.11;107655;1253;97819;-60
2023/02/23 10:47:53;;;;;;;11.90;5.30;;;;;;;6.10;47.40;101968.88;107523;1254;112227;-62
2023/02/23 10:50:28;;;;;;;18.10;5.80;;;;;;;6.10;47.50;101967.81;107452;1258;109560;-61
2023/02/23 10:53:21;;;;;;;14.00;6.50;;;;;;;6.09;47.40;101962.50;107507;1254;108272;-60
2023/02/23 10:56:19;;;;;;;11.80;5.30;;;;;;;6.10;47.47;101963.73;107582;1254;97945;-62
2023/02/23 10:58:54;;;;;;;14.80;5.20;;;;;;;6.05;47.21;101961.12;107599;1254;98398;-61
2023/02/23 11:01:40;;;;;;;29.30;5.80;;;;;;;6.01;47.29;101961.86;107656;1256;111447;-61
2023/02/23 11:04:27;;;;;;;17.30;5.60;;;;;;;6.00;47.32;101961.04;107587;1254;109595;-60
2023/02/23 11:07:18;;;;;;;17.50;6.50;;;;;;;6.02;47.05;101961.27;107531;1252;109139;-60
2023/02/23 11:09:47;;;;;;;12.10;5.00;;;;;;;6.01;46.79;101957.38;107523;1253;97835;-60
2023/02/23 11:12:21;;;;;;;19.00;5.80;;;;;;;6.02;46.65;101958.98;107569;1254;97906;-59
2023/02/23 11:14:52;;;;;;;19.20;5.90;;;;;;;6.04;46.79;101957.25;107544;1254;113397;-61
2023/02/23 11:17:36;;;;;;;12.80;6.20;;;;;;;6.09;46.75;101954.88;107569;1254;109569;-60
2023/02/23 11:20:17;;;;;;;12.30;5.40;;;;;;;6.11;46.54;101956.20;107527;1253;108305;-61
2023/02/23 11:22:46;;;;;;;16.40;4.80;;;;;;;6.08;46.85;101949.73;107534;1254;97851;-61
2023/02/23 11:25:25;;;;;;;7.50;5.30;;;;;;;6.07;46.47;101953.73;107550;1253;98484;-60
2023/02/23 11:27:55;;;;;;;11.90;5.60;;;;;;;6.01;46.45;101949.77;107558;1254;112393;-61
2023/02/23 11:30:35;;;;;;;19.40;5.30;;;;;;;5.97;46.92;101947.61;107587;1254;109633;-59
2023/02/23 11:33:11;;;;;;;9.90;6.10;;;;;;;5.94;46.85;101944.71;107543;1254;107542;-61
2023/02/23 11:35:39;;;;;;;15.50;7.10;;;;;;;5.93;47.16;101945.81;107561;1254;97945;-61
2023/02/23 11:38:34;;;;;;;14.00;5.70;;;;;;;5.95;46.86;101943.40;107619;1254;98498;-62
2023/02/23 11:41:06;;;;;;;22.00;5.80;;;;;;;5.95;47.34;101939.48;107583;1253;111339;-60
2023/02/23 11:43:35;;;;;;;9.70;4.90;;;;;;;5.94;46.97;101941.67;107597;1256;109545;-61
2023/02/23 11:46:03;;;;;;;22.50;6.00;;;;;;;5.90;46.82;101940.29;107617;1254;108160;-61
2023/02/23 11:48:58;;;;;;;11.70;5.50;;;;;;;5.85;46.89;101939.13;107561;1254;97956;-62
2023/02/23 11:51:31;;;;;;;;;;;;;;;5.81;46.99;101940.02;107599;1254;98515;-60
2023/02/23 11:54:02;;;;;;;17.60;6.10;;;;;;;5.74;46.83;101939.66;107599;1254;112436;-60
2023/02/23 11:56:34;;;;;;;15.90;6.80;;;;;;;5.68;47.08;101933.90;107580;1254;110394;-59
2023/02/23 11:59:17;;;;;;;19.70;8.40;;;;;;;5.65;46.96;101935.12;107572;1257;107670;-64
2023/02/23 12:01:53;;;;;;;23.70;7.30;;;;;;;5.61;47.13;101935.14;107590;1254;97870;-62
2023/02/23 12:04:30;;;;;;;14.90;5.60;;;;;;;5.59;47.36;101936.14;107571;1254;98392;-60
2023/02/23 12:07:33;;;;;;;14.40;5.60;;;;;;;5.60;47.34;101937.11;107352;1254;111909;-60
2023/02/23 12:10:10;;;;;;;17.10;6.90;;;;;;;5.62;47.09;101930.95;107565;1254;109858;-65
2023/02/23 12:13:04;;;;;;;14.60;7.20;;;;;;;5.61;47.38;101932.98;107534;1254;107887;-59
2023/02/23 12:15:47;;;;;;;23.40;6.50;;;;;;;5.65;47.58;101930.34;107572;1259;97909;-61
2023/02/23 12:18:56;;;;;;;13.10;6.70;;;;;;;5.71;47.62;101927.19;107561;1254;97844;-60
2023/02/23 12:21:42;;;;;;;16.50;6.50;;;;;;;5.75;46.97;101929.98;107580;1254;111469;-61
2023/02/23 12:24:23;;;;;;;13.80;6.30;;;;;;;5.77;47.01;101926.49;107566;1254;109516;-61
2023/02/23 12:27:03;;;;;;;15.30;5.80;;;;;;;5.85;47.21;101933.61;107541;1254;107666;-61
2023/02/23 12:30:13;;;;;;;22.00;6.30;;;;;;;5.91;46.79;101931.34;107532;1254;97858;-61
2023/02/23 12:32:52;;;;;;;10.50;5.90;;;;;;;5.98;47.00;101931.90;107613;1254;97737;-60
2023/02/23 12:35:39;;;;;;;17.60;6.10;;;;;;;6.05;47.08;101931.92;107584;1254;111372;-60
2023/02/23 12:38:26;;;;;;;12.00;5.90;;;;;;;6.10;46.34;101933.81;107584;1256;109912;-62
2023/02/23 12:41:03;;;;;;;10.20;5.50;;;;;;;6.11;46.08;101930.89;107555;1256;108697;-61
2023/02/23 12:43:39;;;;;;;14.20;5.90;;;;;;;6.09;45.98;101930.65;107560;1256;97812;-63
2023/02/23 12:46:14;;;;;;;12.60;5.60;;;;;;;6.07;45.60;101934.11;107587;1256;97719;-60
2023/02/23 12:48:54;;;;;;;12.90;5.20;;;;;;;6.02;45.29;101929.76;107626;1254;112085;-61
2023/02/23 12:51:31;;;;;;;19.30;5.50;;;;;;;5.96;45.07;101928.77;107599;1254;109069;-61
2023/02/23 12:54:04;;;;;;;9.10;5.40;;;;;;;5.90;45.13;101931.71;107564;1255;108456;-61
2023/02/23 12:56:46;;;;;;;10.40;4.80;;;;;;;5.84;45.20;101932.23;107537;1254;97807;-61
2023/02/23 12:59:47;;;;;;;12.40;4.60;;;;;;;5.76;45.28;101927.46;107579;1257;98373;-61
2023/02/23 13:02:31;;;;;;;10.70;4.40;;;;;;;5.71;45.74;101928.58;107582;1254;111797;-60
2023/02/23 13:05:23;;;;;;;5.80;3.80;;;;;;;5.70;45.59;101924.19;107558;1254;108883;-64
2023/02/23 13:08:19;;;;;;;6.30;3.60;;;;;;;5.68;45.72;101922.17;107564;1254;106565;-61